»·PEaware :: N123AN KSNA-KSNA

N123AN :: KSNA-KSNA

FLIGHT INFORMATION

Flight Status: Arrived
Operator: Privately registered:
United States
More flights under this callsign
Pilot: Vaclav J. (27943)
Aircraft: CESSNA 182 SKYLANE
(C182)
More flights by this aircraft type
Origin: KSNA John Wayne-Orange Co
United States
Destination: KSNA John Wayne-Orange Co
United States
More flights between these airports :: More routes between these airports
Route: +SLI
File this flight plan on PilotEdge
Remarks: VECTORS FOR ILS RWY 20R
Altitude:
(Current/Filed)
4,000ft
Speed:
(Current/Filed)
140kts
Departed: 15-Mar-20 12:04 PM
Arrived: 15-Mar-20 12:33 PM
Distance/Time
Traveled:
0nm/0:28
Distance/Time
To Go:
Arrived

Flight Plot

Page will automatically refresh every two minutes.


Map Options




Map Legend


Flown Route
Filed Route
Departure Airport
Arrival Airport
Navaid (VOR, NDB)
Fix

Horizontal Profiles

Position Reports

Time Latitude Longitude Heading Altitude Ground
Speed
15-Mar-20 11:34 33.676079 -117.870910 220 62ft 0kts
15-Mar-20 11:35 33.676079 -117.870910 220 62ft 0kts
15-Mar-20 11:36 33.676079 -117.870910 220 62ft 0kts
15-Mar-20 11:37 33.676079 -117.870910 220 62ft 0kts
15-Mar-20 11:38 33.676079 -117.870910 220 62ft 0kts
15-Mar-20 11:39 33.676079 -117.870910 220 62ft 0kts
15-Mar-20 11:40 33.676079 -117.870910 220 62ft 0kts
15-Mar-20 11:41 33.676079 -117.870910 220 62ft 0kts
15-Mar-20 11:42 33.676079 -117.870910 220 62ft 0kts
15-Mar-20 11:43 33.676079 -117.870910 220 62ft 0kts
15-Mar-20 11:44 33.676079 -117.870910 220 62ft 0kts
15-Mar-20 11:46 33.676079 -117.870910 220 62ft 0kts
15-Mar-20 11:47 33.675874 -117.870720 109 62ft 9kts
15-Mar-20 11:48 33.679703 -117.867956 20 62ft 0kts
15-Mar-20 11:49 33.681193 -117.867011 69 62ft 0kts
15-Mar-20 11:50 33.681193 -117.867011 69 62ft 0kts
15-Mar-20 11:51 33.681198 -117.866996 65 62ft 0kts
15-Mar-20 11:52 33.681198 -117.866996 65 62ft 0kts
15-Mar-20 11:53 33.681198 -117.866996 65 62ft 0kts
15-Mar-20 11:54 33.681198 -117.866996 65 62ft 0kts
15-Mar-20 11:55 33.681198 -117.866996 65 62ft 0kts
15-Mar-20 11:56 33.681198 -117.866995 64 62ft 0kts
15-Mar-20 11:57 33.681207 -117.866975 64 62ft 2kts
15-Mar-20 11:58 33.681239 -117.866495 115 62ft 0kts
15-Mar-20 11:59 33.681239 -117.866495 115 62ft 0kts
15-Mar-20 12:00 33.681239 -117.866495 115 62ft 0kts
15-Mar-20 12:01 33.681239 -117.866495 115 62ft 0kts
15-Mar-20 12:02 33.681239 -117.866495 115 62ft 0kts
15-Mar-20 12:03 33.681239 -117.866494 115 62ft 0kts
15-Mar-20 12:04 33.679261 -117.866558 206 62ft 53kts
15-Mar-20 12:05 33.665332 -117.888690 242 1234ft 98kts
15-Mar-20 12:05 33.654000 -117.912456 240 2497ft 100kts
15-Mar-20 12:07 33.633011 -117.953786 241 2989ft 148kts
15-Mar-20 12:08 33.611997 -117.996887 243 2985ft 155kts
15-Mar-20 12:08 33.594283 -118.033789 243 3033ft 152kts
15-Mar-20 12:09 33.591190 -118.079252 321 2984ft 151kts
15-Mar-20 12:10 33.629229 -118.069743 21 3040ft 151kts
15-Mar-20 12:12 33.673588 -118.045260 22 3050ft 152kts
15-Mar-20 12:12 33.705280 -118.027687 22 3016ft 152kts
15-Mar-20 12:13 33.743625 -118.006102 21 2982ft 153kts
15-Mar-20 12:14 33.781898 -117.985148 21 2980ft 157kts
15-Mar-20 12:15 33.820926 -117.963921 20 3127ft 148kts
15-Mar-20 12:16 33.860139 -117.942572 20 2912ft 159kts
15-Mar-20 12:17 33.897675 -117.919454 45 3037ft 157kts
15-Mar-20 12:18 33.911020 -117.869590 69 3078ft 154kts
15-Mar-20 12:19 33.922447 -117.819036 72 3000ft 158kts
15-Mar-20 12:20 33.912833 -117.780434 113 2952ft 109kts
15-Mar-20 12:21 33.900770 -117.748420 115 3016ft 109kts
15-Mar-20 12:22 33.882563 -117.732913 226 2948ft 102kts
15-Mar-20 12:23 33.860113 -117.752530 220 2943ft 105kts
15-Mar-20 12:24 33.834484 -117.767260 209 2979ft 105kts
15-Mar-20 12:25 33.808602 -117.784261 208 2869ft 101kts
15-Mar-20 12:26 33.788186 -117.796788 212 2513ft 80kts
15-Mar-20 12:27 33.767087 -117.810948 199 1983ft 93kts
15-Mar-20 12:28 33.745415 -117.824867 210 1561ft 86kts
15-Mar-20 12:29 33.723337 -117.838727 208 999ft 87kts
15-Mar-20 12:30 33.702454 -117.851763 207 563ft 84kts
15-Mar-20 12:31 33.683869 -117.863676 206 179ft 71kts
15-Mar-20 12:32 33.677912 -117.867621 244 62ft 0kts
15-Mar-20 12:33 33.677887 -117.867747 264 62ft 0kts
15-Mar-20 12:34 33.677541 -117.869165 205 62ft 8kts
15-Mar-20 12:35 33.676452 -117.870986 294 62ft 0kts

Navigation Log

Ident Type
Flight plan parsing failed, navigation log unavailable